sensor_id;sensor_type;location;lat;lon;timestamp;P1;durP1;ratioP1;P2;durP2;ratioP2
78752;SDS011;68072;51.688;7.842;2023-11-19T00:01:43;0.60;;;0.60;;
78752;SDS011;68072;51.688;7.842;2023-11-19T00:04:17;2.75;;;1.00;;
78752;SDS011;68072;51.688;7.842;2023-11-19T00:06:42;0.70;;;0.70;;
78752;SDS011;68072;51.688;7.842;2023-11-19T00:09:07;0.80;;;0.80;;
78752;SDS011;68072;51.688;7.842;2023-11-19T00:11:33;0.80;;;0.80;;
78752;SDS011;68072;51.688;7.842;2023-11-19T00:13:58;0.80;;;0.80;;
78752;SDS011;68072;51.688;7.842;2023-11-19T00:16:23;0.73;;;0.73;;
78752;SDS011;68072;51.688;7.842;2023-11-19T00:18:49;0.63;;;0.63;;
78752;SDS011;68072;51.688;7.842;2023-11-19T00:21:15;1.10;;;1.08;;
78752;SDS011;68072;51.688;7.842;2023-11-19T00:23:40;0.90;;;0.90;;
78752;SDS011;68072;51.688;7.842;2023-11-19T00:26:05;1.10;;;1.10;;
78752;SDS011;68072;51.688;7.842;2023-11-19T00:28:31;1.20;;;1.10;;
78752;SDS011;68072;51.688;7.842;2023-11-19T00:30:57;1.10;;;1.10;;
78752;SDS011;68072;51.688;7.842;2023-11-19T00:33:22;2.23;;;0.90;;
78752;SDS011;68072;51.688;7.842;2023-11-19T00:35:47;0.90;;;0.90;;
78752;SDS011;68072;51.688;7.842;2023-11-19T00:38:13;0.68;;;0.68;;
78752;SDS011;68072;51.688;7.842;2023-11-19T00:40:38;0.90;;;0.90;;
78752;SDS011;68072;51.688;7.842;2023-11-19T00:43:04;1.03;;;1.03;;
78752;SDS011;68072;51.688;7.842;2023-11-19T00:45:29;1.13;;;1.03;;
78752;SDS011;68072;51.688;7.842;2023-11-19T00:47:54;1.08;;;1.08;;
78752;SDS011;68072;51.688;7.842;2023-11-19T00:50:20;1.30;;;1.20;;
78752;SDS011;68072;51.688;7.842;2023-11-19T00:52:47;1.50;;;1.05;;
78752;SDS011;68072;51.688;7.842;2023-11-19T00:55:12;1.73;;;1.10;;
78752;SDS011;68072;51.688;7.842;2023-11-19T00:57:38;2.83;;;1.10;;
78752;SDS011;68072;51.688;7.842;2023-11-19T01:00:07;0.93;;;0.87;;
78752;SDS011;68072;51.688;7.842;2023-11-19T01:02:46;0.98;;;0.98;;
78752;SDS011;68072;51.688;7.842;2023-11-19T01:05:11;1.40;;;1.15;;
78752;SDS011;68072;51.688;7.842;2023-11-19T01:07:39;0.85;;;0.85;;
78752;SDS011;68072;51.688;7.842;2023-11-19T01:10:04;1.37;;;1.00;;
78752;SDS011;68072;51.688;7.842;2023-11-19T01:12:30;1.95;;;1.25;;
78752;SDS011;68072;51.688;7.842;2023-11-19T01:14:56;1.08;;;1.08;;
78752;SDS011;68072;51.688;7.842;2023-11-19T01:17:23;1.13;;;1.13;;
78752;SDS011;68072;51.688;7.842;2023-11-19T01:19:48;1.33;;;1.23;;
78752;SDS011;68072;51.688;7.842;2023-11-19T01:22:15;0.98;;;0.80;;
78752;SDS011;68072;51.688;7.842;2023-11-19T01:24:40;1.30;;;1.20;;
78752;SDS011;68072;51.688;7.842;2023-11-19T01:27:05;1.53;;;1.43;;
78752;SDS011;68072;51.688;7.842;2023-11-19T01:29:30;2.40;;;1.60;;
78752;SDS011;68072;51.688;7.842;2023-11-19T01:31:56;1.70;;;1.60;;
78752;SDS011;68072;51.688;7.842;2023-11-19T01:34:21;2.13;;;1.73;;
78752;SDS011;68072;51.688;7.842;2023-11-19T01:36:47;1.90;;;1.80;;
78752;SDS011;68072;51.688;7.842;2023-11-19T01:41:41;1.77;;;1.55;;
78752;SDS011;68072;51.688;7.842;2023-11-19T01:44:06;2.57;;;2.20;;
78752;SDS011;68072;51.688;7.842;2023-11-19T01:46:31;2.40;;;2.20;;
78752;SDS011;68072;51.688;7.842;2023-11-19T01:48:57;2.47;;;2.28;;
78752;SDS011;68072;51.688;7.842;2023-11-19T01:51:23;3.38;;;2.90;;
78752;SDS011;68072;51.688;7.842;2023-11-19T01:53:48;2.55;;;2.35;;
78752;SDS011;68072;51.688;7.842;2023-11-19T01:56:14;3.90;;;2.85;;
78752;SDS011;68072;51.688;7.842;2023-11-19T01:58:40;2.92;;;2.70;;
78752;SDS011;68072;51.688;7.842;2023-11-19T02:01:06;3.22;;;2.83;;
78752;SDS011;68072;51.688;7.842;2023-11-19T02:03:32;4.00;;;2.55;;
78752;SDS011;68072;51.688;7.842;2023-11-19T02:05:58;2.83;;;2.55;;
78752;SDS011;68072;51.688;7.842;2023-11-19T02:08:23;3.60;;;3.05;;
78752;SDS011;68072;51.688;7.842;2023-11-19T02:10:49;5.97;;;2.93;;
78752;SDS011;68072;51.688;7.842;2023-11-19T02:13:14;3.20;;;2.90;;
78752;SDS011;68072;51.688;7.842;2023-11-19T02:15:41;6.78;;;3.15;;
78752;SDS011;68072;51.688;7.842;2023-11-19T02:18:27;2.60;;;2.40;;
78752;SDS011;68072;51.688;7.842;2023-11-19T02:20:56;4.68;;;3.30;;
78752;SDS011;68072;51.688;7.842;2023-11-19T02:23:21;3.20;;;2.67;;
78752;SDS011;68072;51.688;7.842;2023-11-19T02:25:47;2.90;;;2.15;;
78752;SDS011;68072;51.688;7.842;2023-11-19T02:28:15;2.92;;;2.60;;
78752;SDS011;68072;51.688;7.842;2023-11-19T02:30:41;4.25;;;3.00;;
78752;SDS011;68072;51.688;7.842;2023-11-19T02:33:06;3.20;;;2.90;;
78752;SDS011;68072;51.688;7.842;2023-11-19T02:35:32;3.33;;;2.93;;
78752;SDS011;68072;51.688;7.842;2023-11-19T02:37:57;3.77;;;2.67;;
78752;SDS011;68072;51.688;7.842;2023-11-19T02:40:23;4.90;;;2.80;;
78752;SDS011;68072;51.688;7.842;2023-11-19T02:42:52;2.03;;;1.92;;
78752;SDS011;68072;51.688;7.842;2023-11-19T02:45:17;3.72;;;3.20;;
78752;SDS011;68072;51.688;7.842;2023-11-19T02:47:43;2.93;;;2.63;;
78752;SDS011;68072;51.688;7.842;2023-11-19T02:52:42;1.25;;;1.23;;
78752;SDS011;68072;51.688;7.842;2023-11-19T02:55:11;3.63;;;2.55;;
78752;SDS011;68072;51.688;7.842;2023-11-19T02:57:40;4.18;;;2.08;;
78752;SDS011;68072;51.688;7.842;2023-11-19T03:00:21;3.15;;;2.20;;
78752;SDS011;68072;51.688;7.842;2023-11-19T03:02:53;1.98;;;1.83;;
78752;SDS011;68072;51.688;7.842;2023-11-19T03:05:25;6.00;;;2.28;;
78752;SDS011;68072;51.688;7.842;2023-11-19T03:07:50;2.42;;;1.88;;
78752;SDS011;68072;51.688;7.842;2023-11-19T03:10:15;3.50;;;2.30;;
78752;SDS011;68072;51.688;7.842;2023-11-19T03:12:41;6.80;;;2.43;;
78752;SDS011;68072;51.688;7.842;2023-11-19T03:15:07;6.57;;;2.35;;
78752;SDS011;68072;51.688;7.842;2023-11-19T03:17:32;3.15;;;1.83;;
78752;SDS011;68072;51.688;7.842;2023-11-19T03:19:58;4.75;;;2.38;;
78752;SDS011;68072;51.688;7.842;2023-11-19T03:22:23;4.40;;;2.30;;
78752;SDS011;68072;51.688;7.842;2023-11-19T03:24:50;2.78;;;1.98;;
78752;SDS011;68072;51.688;7.842;2023-11-19T03:27:15;3.22;;;2.17;;
78752;SDS011;68072;51.688;7.842;2023-11-19T03:29:41;2.40;;;2.00;;
78752;SDS011;68072;51.688;7.842;2023-11-19T03:32:06;2.90;;;2.30;;
78752;SDS011;68072;51.688;7.842;2023-11-19T03:34:31;3.47;;;2.17;;
78752;SDS011;68072;51.688;7.842;2023-11-19T03:36:57;4.77;;;2.27;;
78752;SDS011;68072;51.688;7.842;2023-11-19T03:39:22;2.33;;;1.93;;
78752;SDS011;68072;51.688;7.842;2023-11-19T03:41:50;3.45;;;1.73;;
78752;SDS011;68072;51.688;7.842;2023-11-19T03:44:15;4.45;;;2.50;;
78752;SDS011;68072;51.688;7.842;2023-11-19T03:46:40;3.60;;;1.73;;
78752;SDS011;68072;51.688;7.842;2023-11-19T03:49:05;3.60;;;2.20;;
78752;SDS011;68072;51.688;7.842;2023-11-19T03:51:32;2.83;;;1.90;;
78752;SDS011;68072;51.688;7.842;2023-11-19T03:53:57;4.33;;;2.57;;
78752;SDS011;68072;51.688;7.842;2023-11-19T03:56:22;5.37;;;2.50;;
78752;SDS011;68072;51.688;7.842;2023-11-19T03:58:47;7.57;;;2.40;;
78752;SDS011;68072;51.688;7.842;2023-11-19T04:01:13;4.13;;;2.53;;
78752;SDS011;68072;51.688;7.842;2023-11-19T04:03:38;4.32;;;2.20;;
78752;SDS011;68072;51.688;7.842;2023-11-19T04:06:04;8.70;;;2.90;;
78752;SDS011;68072;51.688;7.842;2023-11-19T04:08:30;6.45;;;2.40;;
78752;SDS011;68072;51.688;7.842;2023-11-19T04:10:56;6.55;;;2.72;;
78752;SDS011;68072;51.688;7.842;2023-11-19T04:13:21;3.83;;;2.13;;
78752;SDS011;68072;51.688;7.842;2023-11-19T04:15:47;8.50;;;2.53;;
78752;SDS011;68072;51.688;7.842;2023-11-19T04:18:12;9.73;;;2.23;;
78752;SDS011;68072;51.688;7.842;2023-11-19T04:20:37;4.27;;;2.20;;
78752;SDS011;68072;51.688;7.842;2023-11-19T04:23:02;7.23;;;2.17;;
78752;SDS011;68072;51.688;7.842;2023-11-19T04:25:28;4.37;;;2.50;;
78752;SDS011;68072;51.688;7.842;2023-11-19T04:27:53;3.85;;;2.88;;
78752;SDS011;68072;51.688;7.842;2023-11-19T04:30:19;2.53;;;1.67;;
78752;SDS011;68072;51.688;7.842;2023-11-19T04:32:44;8.43;;;2.43;;
78752;SDS011;68072;51.688;7.842;2023-11-19T04:35:09;7.30;;;2.50;;
78752;SDS011;68072;51.688;7.842;2023-11-19T04:37:35;7.70;;;2.38;;
78752;SDS011;68072;51.688;7.842;2023-11-19T04:40:00;7.13;;;2.20;;
78752;SDS011;68072;51.688;7.842;2023-11-19T04:42:26;5.47;;;2.53;;
78752;SDS011;68072;51.688;7.842;2023-11-19T04:44:51;9.53;;;2.23;;
78752;SDS011;68072;51.688;7.842;2023-11-19T04:47:16;3.03;;;2.20;;
78752;SDS011;68072;51.688;7.842;2023-11-19T04:49:41;8.33;;;2.60;;
78752;SDS011;68072;51.688;7.842;2023-11-19T04:52:10;7.20;;;2.05;;
78752;SDS011;68072;51.688;7.842;2023-11-19T04:54:41;5.25;;;2.05;;
78752;SDS011;68072;51.688;7.842;2023-11-19T04:57:07;5.05;;;2.50;;
78752;SDS011;68072;51.688;7.842;2023-11-19T04:59:34;10.63;;;2.20;;
78752;SDS011;68072;51.688;7.842;2023-11-19T05:01:59;7.23;;;2.97;;
78752;SDS011;68072;51.688;7.842;2023-11-19T05:04:25;14.70;;;3.10;;
78752;SDS011;68072;51.688;7.842;2023-11-19T05:06:51;11.77;;;2.20;;
78752;SDS011;68072;51.688;7.842;2023-11-19T05:09:16;6.03;;;2.27;;
78752;SDS011;68072;51.688;7.842;2023-11-19T05:11:41;7.87;;;2.47;;
78752;SDS011;68072;51.688;7.842;2023-11-19T05:14:06;8.40;;;2.57;;
78752;SDS011;68072;51.688;7.842;2023-11-19T05:16:32;7.03;;;2.33;;
78752;SDS011;68072;51.688;7.842;2023-11-19T05:18:57;9.35;;;2.40;;
78752;SDS011;68072;51.688;7.842;2023-11-19T05:21:22;8.20;;;2.33;;
78752;SDS011;68072;51.688;7.842;2023-11-19T05:23:48;17.13;;;3.38;;
78752;SDS011;68072;51.688;7.842;2023-11-19T05:26:18;13.07;;;2.85;;
78752;SDS011;68072;51.688;7.842;2023-11-19T05:28:43;14.23;;;2.17;;
78752;SDS011;68072;51.688;7.842;2023-11-19T05:31:08;12.10;;;2.50;;
78752;SDS011;68072;51.688;7.842;2023-11-19T05:33:34;9.90;;;2.40;;
78752;SDS011;68072;51.688;7.842;2023-11-19T05:35:59;15.23;;;2.20;;
78752;SDS011;68072;51.688;7.842;2023-11-19T05:38:24;10.83;;;2.10;;
78752;SDS011;68072;51.688;7.842;2023-11-19T05:40:49;6.57;;;1.87;;
78752;SDS011;68072;51.688;7.842;2023-11-19T05:43:15;5.70;;;1.70;;
78752;SDS011;68072;51.688;7.842;2023-11-19T05:45:41;11.60;;;2.75;;
78752;SDS011;68072;51.688;7.842;2023-11-19T05:48:06;8.27;;;1.80;;
78752;SDS011;68072;51.688;7.842;2023-11-19T05:50:33;10.38;;;2.22;;
78752;SDS011;68072;51.688;7.842;2023-11-19T05:52:59;9.65;;;2.67;;
78752;SDS011;68072;51.688;7.842;2023-11-19T05:55:24;7.20;;;2.03;;
78752;SDS011;68072;51.688;7.842;2023-11-19T05:57:49;8.95;;;1.85;;
78752;SDS011;68072;51.688;7.842;2023-11-19T06:00:17;8.50;;;2.65;;
78752;SDS011;68072;51.688;7.842;2023-11-19T06:02:43;13.68;;;2.63;;
78752;SDS011;68072;51.688;7.842;2023-11-19T06:05:08;11.07;;;2.97;;
78752;SDS011;68072;51.688;7.842;2023-11-19T06:07:34;10.30;;;3.05;;
78752;SDS011;68072;51.688;7.842;2023-11-19T06:10:01;10.45;;;2.38;;
78752;SDS011;68072;51.688;7.842;2023-11-19T06:12:26;19.23;;;3.42;;
78752;SDS011;68072;51.688;7.842;2023-11-19T06:14:52;14.88;;;2.95;;
78752;SDS011;68072;51.688;7.842;2023-11-19T06:17:18;17.17;;;3.93;;
78752;SDS011;68072;51.688;7.842;2023-11-19T06:19:43;17.33;;;2.97;;
78752;SDS011;68072;51.688;7.842;2023-11-19T06:22:08;13.30;;;3.03;;
78752;SDS011;68072;51.688;7.842;2023-11-19T06:24:33;19.57;;;3.60;;
78752;SDS011;68072;51.688;7.842;2023-11-19T06:26:59;14.93;;;3.63;;
78752;SDS011;68072;51.688;7.842;2023-11-19T06:29:24;10.70;;;2.87;;
78752;SDS011;68072;51.688;7.842;2023-11-19T06:31:49;13.95;;;2.85;;
78752;SDS011;68072;51.688;7.842;2023-11-19T06:34:15;10.18;;;2.60;;
78752;SDS011;68072;51.688;7.842;2023-11-19T06:36:40;15.77;;;3.10;;
78752;SDS011;68072;51.688;7.842;2023-11-19T06:39:06;17.77;;;3.25;;
78752;SDS011;68072;51.688;7.842;2023-11-19T06:41:31;7.03;;;2.80;;
78752;SDS011;68072;51.688;7.842;2023-11-19T06:43:56;12.32;;;2.70;;
78752;SDS011;68072;51.688;7.842;2023-11-19T06:46:22;12.60;;;2.73;;
78752;SDS011;68072;51.688;7.842;2023-11-19T06:48:47;11.47;;;2.90;;
78752;SDS011;68072;51.688;7.842;2023-11-19T06:51:12;14.70;;;3.67;;
78752;SDS011;68072;51.688;7.842;2023-11-19T06:53:38;13.93;;;3.08;;
78752;SDS011;68072;51.688;7.842;2023-11-19T06:56:05;11.35;;;2.70;;
78752;SDS011;68072;51.688;7.842;2023-11-19T06:58:31;11.48;;;2.00;;
78752;SDS011;68072;51.688;7.842;2023-11-19T07:00:57;9.30;;;1.90;;
78752;SDS011;68072;51.688;7.842;2023-11-19T07:03:22;7.73;;;2.67;;
78752;SDS011;68072;51.688;7.842;2023-11-19T07:05:48;25.27;;;4.10;;
78752;SDS011;68072;51.688;7.842;2023-11-19T07:08:13;10.35;;;2.47;;
78752;SDS011;68072;51.688;7.842;2023-11-19T07:10:39;12.60;;;2.73;;
78752;SDS011;68072;51.688;7.842;2023-11-19T07:13:04;12.37;;;2.50;;
78752;SDS011;68072;51.688;7.842;2023-11-19T07:15:31;5.68;;;1.95;;
78752;SDS011;68072;51.688;7.842;2023-11-19T07:17:57;9.20;;;3.05;;
78752;SDS011;68072;51.688;7.842;2023-11-19T07:20:23;22.00;;;3.47;;
78752;SDS011;68072;51.688;7.842;2023-11-19T07:22:49;11.03;;;2.40;;
78752;SDS011;68072;51.688;7.842;2023-11-19T07:25:15;8.52;;;2.83;;
78752;SDS011;68072;51.688;7.842;2023-11-19T07:27:40;12.03;;;3.80;;
78752;SDS011;68072;51.688;7.842;2023-11-19T07:30:06;13.77;;;2.87;;
78752;SDS011;68072;51.688;7.842;2023-11-19T07:32:32;11.20;;;2.97;;
78752;SDS011;68072;51.688;7.842;2023-11-19T07:34:57;15.02;;;2.97;;
78752;SDS011;68072;51.688;7.842;2023-11-19T07:37:22;14.97;;;2.27;;
78752;SDS011;68072;51.688;7.842;2023-11-19T07:39:48;20.43;;;3.23;;
78752;SDS011;68072;51.688;7.842;2023-11-19T07:42:13;8.63;;;2.53;;
78752;SDS011;68072;51.688;7.842;2023-11-19T07:44:38;7.37;;;2.77;;
78752;SDS011;68072;51.688;7.842;2023-11-19T07:47:03;19.63;;;3.77;;
78752;SDS011;68072;51.688;7.842;2023-11-19T07:49:29;10.03;;;2.53;;
78752;SDS011;68072;51.688;7.842;2023-11-19T07:51:55;11.40;;;2.83;;
78752;SDS011;68072;51.688;7.842;2023-11-19T07:54:21;7.07;;;2.60;;
78752;SDS011;68072;51.688;7.842;2023-11-19T07:56:46;25.33;;;3.25;;
78752;SDS011;68072;51.688;7.842;2023-11-19T07:59:11;7.87;;;3.37;;
78752;SDS011;68072;51.688;7.842;2023-11-19T08:01:37;21.83;;;3.40;;
78752;SDS011;68072;51.688;7.842;2023-11-19T08:04:02;13.33;;;3.27;;
78752;SDS011;68072;51.688;7.842;2023-11-19T08:06:27;13.25;;;3.15;;
78752;SDS011;68072;51.688;7.842;2023-11-19T08:08:53;5.60;;;1.77;;
78752;SDS011;68072;51.688;7.842;2023-11-19T08:11:18;8.53;;;2.13;;
78752;SDS011;68072;51.688;7.842;2023-11-19T08:13:44;12.00;;;3.03;;
78752;SDS011;68072;51.688;7.842;2023-11-19T08:16:10;17.73;;;3.30;;
78752;SDS011;68072;51.688;7.842;2023-11-19T08:18:35;10.85;;;2.92;;
78752;SDS011;68072;51.688;7.842;2023-11-19T08:21:01;15.10;;;2.40;;
78752;SDS011;68072;51.688;7.842;2023-11-19T08:23:26;12.93;;;2.80;;
78752;SDS011;68072;51.688;7.842;2023-11-19T08:25:53;14.88;;;2.75;;
78752;SDS011;68072;51.688;7.842;2023-11-19T08:28:19;15.52;;;2.72;;
78752;SDS011;68072;51.688;7.842;2023-11-19T08:30:44;12.02;;;2.33;;
78752;SDS011;68072;51.688;7.842;2023-11-19T08:33:10;19.90;;;3.17;;
78752;SDS011;68072;51.688;7.842;2023-11-19T08:35:35;15.98;;;2.85;;
78752;SDS011;68072;51.688;7.842;2023-11-19T08:38:00;7.83;;;2.00;;
78752;SDS011;68072;51.688;7.842;2023-11-19T08:40:26;13.65;;;2.85;;
78752;SDS011;68072;51.688;7.842;2023-11-19T08:42:52;11.73;;;2.72;;
78752;SDS011;68072;51.688;7.842;2023-11-19T08:45:17;7.83;;;1.57;;
78752;SDS011;68072;51.688;7.842;2023-11-19T08:47:42;30.03;;;2.93;;
78752;SDS011;68072;51.688;7.842;2023-11-19T08:50:07;15.50;;;3.13;;
78752;SDS011;68072;51.688;7.842;2023-11-19T08:52:33;10.30;;;2.88;;
78752;SDS011;68072;51.688;7.842;2023-11-19T08:54:59;11.85;;;2.13;;
78752;SDS011;68072;51.688;7.842;2023-11-19T08:57:24;10.70;;;2.30;;
78752;SDS011;68072;51.688;7.842;2023-11-19T08:59:50;15.30;;;2.53;;
78752;SDS011;68072;51.688;7.842;2023-11-19T09:02:15;8.50;;;1.97;;
78752;SDS011;68072;51.688;7.842;2023-11-19T09:04:41;15.75;;;2.55;;
78752;SDS011;68072;51.688;7.842;2023-11-19T09:07:06;12.03;;;2.63;;
78752;SDS011;68072;51.688;7.842;2023-11-19T09:09:34;17.55;;;3.38;;
78752;SDS011;68072;51.688;7.842;2023-11-19T09:12:01;17.77;;;4.45;;
78752;SDS011;68072;51.688;7.842;2023-11-19T09:14:26;9.60;;;1.80;;
78752;SDS011;68072;51.688;7.842;2023-11-19T09:16:52;28.47;;;3.90;;
78752;SDS011;68072;51.688;7.842;2023-11-19T09:19:17;12.05;;;2.72;;
78752;SDS011;68072;51.688;7.842;2023-11-19T09:21:43;10.23;;;2.67;;
78752;SDS011;68072;51.688;7.842;2023-11-19T09:24:08;9.82;;;2.17;;
78752;SDS011;68072;51.688;7.842;2023-11-19T09:26:34;11.13;;;2.63;;
78752;SDS011;68072;51.688;7.842;2023-11-19T09:29:01;17.42;;;2.78;;
78752;SDS011;68072;51.688;7.842;2023-11-19T09:31:26;10.48;;;2.45;;
78752;SDS011;68072;51.688;7.842;2023-11-19T09:33:51;16.80;;;4.03;;
78752;SDS011;68072;51.688;7.842;2023-11-19T09:36:17;14.07;;;3.50;;
78752;SDS011;68072;51.688;7.842;2023-11-19T09:38:45;15.48;;;2.42;;
78752;SDS011;68072;51.688;7.842;2023-11-19T09:41:10;9.13;;;2.60;;
78752;SDS011;68072;51.688;7.842;2023-11-19T09:43:41;9.88;;;2.80;;
78752;SDS011;68072;51.688;7.842;2023-11-19T09:46:09;9.07;;;2.30;;
78752;SDS011;68072;51.688;7.842;2023-11-19T09:48:37;11.50;;;2.67;;
78752;SDS011;68072;51.688;7.842;2023-11-19T09:51:03;13.35;;;2.78;;
78752;SDS011;68072;51.688;7.842;2023-11-19T09:53:29;20.70;;;4.00;;
78752;SDS011;68072;51.688;7.842;2023-11-19T09:55:55;13.10;;;3.17;;
78752;SDS011;68072;51.688;7.842;2023-11-19T09:58:20;8.75;;;2.25;;
78752;SDS011;68072;51.688;7.842;2023-11-19T10:00:45;13.80;;;3.13;;
78752;SDS011;68072;51.688;7.842;2023-11-19T10:03:11;13.50;;;2.63;;
78752;SDS011;68072;51.688;7.842;2023-11-19T10:05:38;18.27;;;2.97;;
78752;SDS011;68072;51.688;7.842;2023-11-19T10:08:04;17.02;;;3.50;;
78752;SDS011;68072;51.688;7.842;2023-11-19T10:10:30;14.30;;;3.00;;
78752;SDS011;68072;51.688;7.842;2023-11-19T10:12:55;18.45;;;2.95;;
78752;SDS011;68072;51.688;7.842;2023-11-19T10:15:22;16.88;;;2.90;;
78752;SDS011;68072;51.688;7.842;2023-11-19T10:17:49;16.40;;;2.30;;
78752;SDS011;68072;51.688;7.842;2023-11-19T10:20:15;13.55;;;3.08;;
78752;SDS011;68072;51.688;7.842;2023-11-19T10:22:40;15.53;;;3.17;;
78752;SDS011;68072;51.688;7.842;2023-11-19T10:25:21;11.63;;;2.72;;
78752;SDS011;68072;51.688;7.842;2023-11-19T10:27:47;13.05;;;2.45;;
78752;SDS011;68072;51.688;7.842;2023-11-19T10:30:12;13.43;;;3.22;;
78752;SDS011;68072;51.688;7.842;2023-11-19T10:32:38;11.50;;;2.42;;
78752;SDS011;68072;51.688;7.842;2023-11-19T10:35:06;10.00;;;2.53;;
78752;SDS011;68072;51.688;7.842;2023-11-19T10:37:32;9.52;;;2.67;;
78752;SDS011;68072;51.688;7.842;2023-11-19T10:39:57;13.30;;;3.28;;
78752;SDS011;68072;51.688;7.842;2023-11-19T10:42:23;17.97;;;3.13;;
78752;SDS011;68072;51.688;7.842;2023-11-19T10:44:48;16.55;;;2.92;;
78752;SDS011;68072;51.688;7.842;2023-11-19T10:47:14;9.43;;;2.15;;
78752;SDS011;68072;51.688;7.842;2023-11-19T10:49:40;8.23;;;2.10;;
78752;SDS011;68072;51.688;7.842;2023-11-19T10:52:05;16.58;;;2.80;;
78752;SDS011;68072;51.688;7.842;2023-11-19T10:54:33;14.82;;;2.83;;
78752;SDS011;68072;51.688;7.842;2023-11-19T10:56:59;15.75;;;2.60;;
78752;SDS011;68072;51.688;7.842;2023-11-19T10:59:27;14.30;;;2.83;;
78752;SDS011;68072;51.688;7.842;2023-11-19T11:01:53;11.48;;;2.50;;
78752;SDS011;68072;51.688;7.842;2023-11-19T11:04:25;10.38;;;2.20;;
78752;SDS011;68072;51.688;7.842;2023-11-19T11:06:54;9.20;;;2.58;;
78752;SDS011;68072;51.688;7.842;2023-11-19T11:09:19;18.27;;;3.15;;
78752;SDS011;68072;51.688;7.842;2023-11-19T11:11:48;18.27;;;2.63;;
78752;SDS011;68072;51.688;7.842;2023-11-19T11:14:14;17.83;;;3.00;;
78752;SDS011;68072;51.688;7.842;2023-11-19T11:16:44;25.48;;;3.83;;
78752;SDS011;68072;51.688;7.842;2023-11-19T11:19:11;18.33;;;3.35;;
78752;SDS011;68072;51.688;7.842;2023-11-19T11:21:37;14.68;;;2.80;;
78752;SDS011;68072;51.688;7.842;2023-11-19T11:27:02;9.07;;;1.88;;
78752;SDS011;68072;51.688;7.842;2023-11-19T11:32:18;16.15;;;3.78;;
78752;SDS011;68072;51.688;7.842;2023-11-19T11:39:52;14.82;;;2.40;;
78752;SDS011;68072;51.688;7.842;2023-11-19T11:47:23;12.00;;;2.03;;
78752;SDS011;68072;51.688;7.842;2023-11-19T11:49:48;15.07;;;3.57;;
78752;SDS011;68072;51.688;7.842;2023-11-19T11:52:16;11.23;;;2.75;;
78752;SDS011;68072;51.688;7.842;2023-11-19T11:54:42;19.95;;;2.83;;
78752;SDS011;68072;51.688;7.842;2023-11-19T11:57:08;12.17;;;2.73;;
78752;SDS011;68072;51.688;7.842;2023-11-19T12:02:09;12.70;;;2.15;;
78752;SDS011;68072;51.688;7.842;2023-11-19T12:04:35;21.63;;;3.13;;
78752;SDS011;68072;51.688;7.842;2023-11-19T12:07:04;8.65;;;2.00;;
78752;SDS011;68072;51.688;7.842;2023-11-19T12:09:31;9.43;;;2.20;;
78752;SDS011;68072;51.688;7.842;2023-11-19T12:12:12;18.58;;;2.75;;
78752;SDS011;68072;51.688;7.842;2023-11-19T12:20:04;13.43;;;2.50;;
78752;SDS011;68072;51.688;7.842;2023-11-19T12:22:31;12.02;;;2.97;;
78752;SDS011;68072;51.688;7.842;2023-11-19T12:24:56;21.63;;;3.35;;
78752;SDS011;68072;51.688;7.842;2023-11-19T12:27:22;13.63;;;2.22;;
78752;SDS011;68072;51.688;7.842;2023-11-19T12:29:48;12.10;;;1.73;;
78752;SDS011;68072;51.688;7.842;2023-11-19T12:32:13;8.00;;;2.08;;
78752;SDS011;68072;51.688;7.842;2023-11-19T12:34:38;14.20;;;2.35;;
78752;SDS011;68072;51.688;7.842;2023-11-19T12:37:04;17.30;;;2.53;;
78752;SDS011;68072;51.688;7.842;2023-11-19T12:39:30;6.55;;;2.65;;
78752;SDS011;68072;51.688;7.842;2023-11-19T12:41:55;18.73;;;2.47;;
78752;SDS011;68072;51.688;7.842;2023-11-19T12:44:22;16.73;;;2.55;;
78752;SDS011;68072;51.688;7.842;2023-11-19T12:49:13;13.93;;;2.50;;
78752;SDS011;68072;51.688;7.842;2023-11-19T12:51:39;8.27;;;2.58;;
78752;SDS011;68072;51.688;7.842;2023-11-19T12:54:04;12.95;;;2.30;;
78752;SDS011;68072;51.688;7.842;2023-11-19T12:56:29;9.23;;;2.30;;
78752;SDS011;68072;51.688;7.842;2023-11-19T12:58:55;9.63;;;3.07;;
78752;SDS011;68072;51.688;7.842;2023-11-19T13:01:23;7.15;;;1.95;;
78752;SDS011;68072;51.688;7.842;2023-11-19T13:03:49;9.00;;;2.27;;
78752;SDS011;68072;51.688;7.842;2023-11-19T13:06:16;16.05;;;2.42;;
78752;SDS011;68072;51.688;7.842;2023-11-19T13:08:42;7.80;;;2.08;;
78752;SDS011;68072;51.688;7.842;2023-11-19T13:11:09;11.25;;;2.35;;
78752;SDS011;68072;51.688;7.842;2023-11-19T13:16:18;16.83;;;3.05;;
78752;SDS011;68072;51.688;7.842;2023-11-19T13:18:44;11.63;;;2.63;;
78752;SDS011;68072;51.688;7.842;2023-11-19T13:21:09;4.35;;;1.92;;
78752;SDS011;68072;51.688;7.842;2023-11-19T13:23:34;13.10;;;3.40;;
78752;SDS011;68072;51.688;7.842;2023-11-19T13:26:00;11.77;;;2.83;;
78752;SDS011;68072;51.688;7.842;2023-11-19T13:28:25;13.03;;;2.87;;
78752;SDS011;68072;51.688;7.842;2023-11-19T13:30:51;9.85;;;2.42;;
78752;SDS011;68072;51.688;7.842;2023-11-19T13:33:18;8.45;;;1.98;;
78752;SDS011;68072;51.688;7.842;2023-11-19T13:35:44;11.57;;;2.15;;
78752;SDS011;68072;51.688;7.842;2023-11-19T13:38:09;11.83;;;2.20;;
78752;SDS011;68072;51.688;7.842;2023-11-19T13:40:34;6.00;;;1.20;;
78752;SDS011;68072;51.688;7.842;2023-11-19T13:42:59;10.20;;;2.22;;
78752;SDS011;68072;51.688;7.842;2023-11-19T13:45:25;15.37;;;3.37;;
78752;SDS011;68072;51.688;7.842;2023-11-19T13:47:50;6.70;;;1.73;;
78752;SDS011;68072;51.688;7.842;2023-11-19T13:50:16;10.67;;;2.13;;
78752;SDS011;68072;51.688;7.842;2023-11-19T13:52:54;8.55;;;2.03;;
78752;SDS011;68072;51.688;7.842;2023-11-19T13:55:19;6.45;;;1.65;;
78752;SDS011;68072;51.688;7.842;2023-11-19T13:57:45;6.40;;;1.88;;
78752;SDS011;68072;51.688;7.842;2023-11-19T14:02:40;5.82;;;1.77;;
78752;SDS011;68072;51.688;7.842;2023-11-19T14:05:06;9.82;;;1.80;;
78752;SDS011;68072;51.688;7.842;2023-11-19T14:07:31;13.77;;;2.25;;
78752;SDS011;68072;51.688;7.842;2023-11-19T14:09:56;4.17;;;1.77;;
78752;SDS011;68072;51.688;7.842;2023-11-19T14:12:21;12.30;;;2.37;;
78752;SDS011;68072;51.688;7.842;2023-11-19T14:14:47;3.08;;;1.58;;
78752;SDS011;68072;51.688;7.842;2023-11-19T14:17:12;8.20;;;2.27;;
78752;SDS011;68072;51.688;7.842;2023-11-19T14:19:38;11.67;;;2.10;;
78752;SDS011;68072;51.688;7.842;2023-11-19T14:22:04;10.38;;;3.42;;
78752;SDS011;68072;51.688;7.842;2023-11-19T14:24:29;9.95;;;1.85;;
78752;SDS011;68072;51.688;7.842;2023-11-19T14:26:54;9.87;;;1.67;;
78752;SDS011;68072;51.688;7.842;2023-11-19T14:29:23;9.82;;;1.60;;
78752;SDS011;68072;51.688;7.842;2023-11-19T14:31:48;8.27;;;2.30;;
78752;SDS011;68072;51.688;7.842;2023-11-19T14:34:13;9.57;;;2.20;;
78752;SDS011;68072;51.688;7.842;2023-11-19T14:36:38;12.17;;;2.27;;
78752;SDS011;68072;51.688;7.842;2023-11-19T14:39:04;15.07;;;2.75;;
78752;SDS011;68072;51.688;7.842;2023-11-19T14:41:29;16.80;;;2.58;;
78752;SDS011;68072;51.688;7.842;2023-11-19T14:43:54;10.00;;;2.30;;
78752;SDS011;68072;51.688;7.842;2023-11-19T14:46:19;12.47;;;2.17;;
78752;SDS011;68072;51.688;7.842;2023-11-19T14:48:45;14.97;;;2.53;;
78752;SDS011;68072;51.688;7.842;2023-11-19T14:51:10;7.17;;;2.00;;
78752;SDS011;68072;51.688;7.842;2023-11-19T14:53:35;8.43;;;1.93;;
78752;SDS011;68072;51.688;7.842;2023-11-19T14:56:00;10.83;;;2.43;;
78752;SDS011;68072;51.688;7.842;2023-11-19T14:58:26;5.57;;;1.77;;
78752;SDS011;68072;51.688;7.842;2023-11-19T15:00:51;11.30;;;2.20;;
78752;SDS011;68072;51.688;7.842;2023-11-19T15:03:17;3.45;;;1.27;;
78752;SDS011;68072;51.688;7.842;2023-11-19T15:05:44;14.10;;;2.60;;
78752;SDS011;68072;51.688;7.842;2023-11-19T15:08:10;5.97;;;1.58;;
78752;SDS011;68072;51.688;7.842;2023-11-19T15:10:36;6.17;;;2.07;;